sensor_id;sensor_type;location;lat;lon;timestamp;pressure;altitude;pressure_sealevel;temperature;humidity
69848;BME280;57143;55.940;37.496;2022-11-11T00:01:00;99659.16;;;7.54;100.00
69848;BME280;57143;55.940;37.496;2022-11-11T00:03:27;99657.91;;;7.56;100.00
69848;BME280;57143;55.940;37.496;2022-11-11T00:05:59;99642.78;;;7.55;100.00
69848;BME280;57143;55.940;37.496;2022-11-11T00:08:26;99600.38;;;7.36;100.00
69848;BME280;57143;55.940;37.496;2022-11-11T00:11:00;99632.22;;;7.60;100.00
69848;BME280;57143;55.940;37.496;2022-11-11T00:13:28;99623.50;;;7.65;100.00
69848;BME280;57143;55.940;37.496;2022-11-11T00:15:55;99617.69;;;7.61;100.00
69848;BME280;57143;55.940;37.496;2022-11-11T00:18:22;99620.59;;;7.60;100.00
69848;BME280;57143;55.940;37.496;2022-11-11T00:21:12;99612.53;;;7.66;100.00
69848;BME280;57143;55.940;37.496;2022-11-11T00:23:56;99606.69;;;7.63;100.00
69848;BME280;57143;55.940;37.496;2022-11-11T00:26:42;99603.22;;;7.69;100.00
69848;BME280;57143;55.940;37.496;2022-11-11T00:29:10;99587.03;;;7.69;100.00
69848;BME280;57143;55.940;37.496;2022-11-11T00:31:39;99615.63;;;7.63;100.00
69848;BME280;57143;55.940;37.496;2022-11-11T00:34:20;99617.13;;;7.72;100.00
69848;BME280;57143;55.940;37.496;2022-11-11T00:36:47;99623.97;;;7.75;100.00
69848;BME280;57143;55.940;37.496;2022-11-11T00:39:13;99611.28;;;7.62;100.00
69848;BME280;57143;55.940;37.496;2022-11-11T00:41:42;99627.06;;;7.65;100.00
69848;BME280;57143;55.940;37.496;2022-11-11T00:44:09;99627.09;;;7.72;100.00
69848;BME280;57143;55.940;37.496;2022-11-11T00:46:36;99634.94;;;7.67;100.00
69848;BME280;57143;55.940;37.496;2022-11-11T00:49:20;99636.22;;;7.71;100.00
69848;BME280;57143;55.940;37.496;2022-11-11T00:52:05;99623.94;;;7.68;100.00
69848;BME280;57143;55.940;37.496;2022-11-11T00:54:32;99628.75;;;7.73;100.00
69848;BME280;57143;55.940;37.496;2022-11-11T00:57:00;99633.31;;;7.72;100.00
69848;BME280;57143;55.940;37.496;2022-11-11T00:59:27;99628.97;;;7.71;100.00
69848;BME280;57143;55.940;37.496;2022-11-11T01:01:54;99608.56;;;7.56;100.00
69848;BME280;57143;55.940;37.496;2022-11-11T01:04:22;99632.88;;;7.69;100.00
69848;BME280;57143;55.940;37.496;2022-11-11T01:06:49;99634.97;;;7.73;100.00
69848;BME280;57143;55.940;37.496;2022-11-11T01:09:16;99637.88;;;7.72;100.00
69848;BME280;57143;55.940;37.496;2022-11-11T01:11:43;99640.56;;;7.72;100.00
69848;BME280;57143;55.940;37.496;2022-11-11T01:14:11;99629.97;;;7.70;100.00
69848;BME280;57143;55.940;37.496;2022-11-11T01:16:38;99635.41;;;7.77;100.00
69848;BME280;57143;55.940;37.496;2022-11-11T01:19:05;99639.34;;;7.74;100.00
69848;BME280;57143;55.940;37.496;2022-11-11T01:21:32;99594.88;;;7.57;100.00
69848;BME280;57143;55.940;37.496;2022-11-11T01:24:00;99644.31;;;7.71;100.00
69848;BME280;57143;55.940;37.496;2022-11-11T01:26:27;99646.25;;;7.83;100.00
69848;BME280;57143;55.940;37.496;2022-11-11T01:28:55;99644.75;;;7.74;100.00
69848;BME280;57143;55.940;37.496;2022-11-11T01:31:25;99655.75;;;7.79;100.00
69848;BME280;57143;55.940;37.496;2022-11-11T01:33:53;99649.94;;;7.76;100.00
69848;BME280;57143;55.940;37.496;2022-11-11T01:36:22;99649.53;;;7.79;100.00
69848;BME280;57143;55.940;37.496;2022-11-11T01:38:50;99670.66;;;7.75;100.00
69848;BME280;57143;55.940;37.496;2022-11-11T01:41:20;99679.81;;;7.74;100.00
69848;BME280;57143;55.940;37.496;2022-11-11T01:43:59;99663.41;;;7.69;100.00
69848;BME280;57143;55.940;37.496;2022-11-11T01:46:31;99668.38;;;7.72;100.00
69848;BME280;57143;55.940;37.496;2022-11-11T01:49:12;99664.06;;;7.78;100.00
69848;BME280;57143;55.940;37.496;2022-11-11T01:51:48;99663.44;;;7.76;100.00
69848;BME280;57143;55.940;37.496;2022-11-11T01:54:20;99646.56;;;7.67;100.00
69848;BME280;57143;55.940;37.496;2022-11-11T01:56:52;99671.09;;;7.72;100.00
69848;BME280;57143;55.940;37.496;2022-11-11T01:59:21;99669.22;;;7.73;100.00
69848;BME280;57143;55.940;37.496;2022-11-11T02:01:50;99662.34;;;7.70;100.00
69848;BME280;57143;55.940;37.496;2022-11-11T02:04:18;99687.09;;;7.80;100.00
69848;BME280;57143;55.940;37.496;2022-11-11T02:07:06;99687.91;;;7.74;100.00
69848;BME280;57143;55.940;37.496;2022-11-11T02:09:35;99681.25;;;7.77;100.00
69848;BME280;57143;55.940;37.496;2022-11-11T02:12:05;99686.03;;;7.75;100.00
69848;BME280;57143;55.940;37.496;2022-11-11T02:14:53;99693.75;;;7.84;100.00
69848;BME280;57143;55.940;37.496;2022-11-11T02:17:23;99692.13;;;7.83;100.00
69848;BME280;57143;55.940;37.496;2022-11-11T02:19:55;99681.88;;;7.72;100.00
69848;BME280;57143;55.940;37.496;2022-11-11T02:22:32;99688.72;;;7.75;100.00
69848;BME280;57143;55.940;37.496;2022-11-11T02:25:06;99683.72;;;7.72;100.00
69848;BME280;57143;55.940;37.496;2022-11-11T02:27:37;99662.31;;;7.64;100.00
69848;BME280;57143;55.940;37.496;2022-11-11T02:30:08;99684.81;;;7.84;100.00
69848;BME280;57143;55.940;37.496;2022-11-11T02:32:41;99689.22;;;7.85;100.00
69848;BME280;57143;55.940;37.496;2022-11-11T02:35:14;99674.22;;;7.76;100.00
69848;BME280;57143;55.940;37.496;2022-11-11T02:37:45;99678.78;;;7.75;100.00
69848;BME280;57143;55.940;37.496;2022-11-11T02:40:16;99701.81;;;7.71;100.00
69848;BME280;57143;55.940;37.496;2022-11-11T02:42:44;99689.13;;;7.72;100.00
69848;BME280;57143;55.940;37.496;2022-11-11T02:45:11;99702.09;;;7.89;100.00
69848;BME280;57143;55.940;37.496;2022-11-11T02:47:38;99711.81;;;7.84;100.00
69848;BME280;57143;55.940;37.496;2022-11-11T02:50:06;99708.09;;;7.85;100.00
69848;BME280;57143;55.940;37.496;2022-11-11T02:52:33;99692.13;;;7.83;100.00
69848;BME280;57143;55.940;37.496;2022-11-11T02:55:01;99720.78;;;7.91;100.00
69848;BME280;57143;55.940;37.496;2022-11-11T02:57:30;99707.00;;;7.73;100.00
69848;BME280;57143;55.940;37.496;2022-11-11T02:59:59;99718.22;;;7.76;100.00
69848;BME280;57143;55.940;37.496;2022-11-11T03:02:27;99714.72;;;7.82;100.00
69848;BME280;57143;55.940;37.496;2022-11-11T03:04:54;99724.28;;;7.85;100.00
69848;BME280;57143;55.940;37.496;2022-11-11T03:07:23;99720.97;;;7.89;100.00
69848;BME280;57143;55.940;37.496;2022-11-11T03:09:50;99733.16;;;7.79;100.00
69848;BME280;57143;55.940;37.496;2022-11-11T03:12:17;99729.38;;;7.73;100.00
69848;BME280;57143;55.940;37.496;2022-11-11T03:14:47;99687.75;;;7.48;100.00
69848;BME280;57143;55.940;37.496;2022-11-11T03:17:14;99726.50;;;7.75;100.00
69848;BME280;57143;55.940;37.496;2022-11-11T03:19:59;99726.09;;;7.71;100.00
69848;BME280;57143;55.940;37.496;2022-11-11T03:22:39;99729.19;;;7.75;100.00
69848;BME280;57143;55.940;37.496;2022-11-11T03:25:07;99716.50;;;7.69;100.00
69848;BME280;57143;55.940;37.496;2022-11-11T03:27:52;99728.81;;;7.78;100.00
69848;BME280;57143;55.940;37.496;2022-11-11T03:30:20;99735.22;;;7.77;100.00
69848;BME280;57143;55.940;37.496;2022-11-11T03:32:49;99749.13;;;7.74;100.00
69848;BME280;57143;55.940;37.496;2022-11-11T03:35:16;99752.84;;;7.73;100.00
69848;BME280;57143;55.940;37.496;2022-11-11T03:37:43;99760.97;;;7.79;100.00
69848;BME280;57143;55.940;37.496;2022-11-11T03:40:27;99754.94;;;7.77;100.00
69848;BME280;57143;55.940;37.496;2022-11-11T03:42:54;99728.72;;;7.65;100.00
69848;BME280;57143;55.940;37.496;2022-11-11T03:45:23;99766.38;;;7.79;100.00
69848;BME280;57143;55.940;37.496;2022-11-11T03:47:50;99769.72;;;7.81;100.00
69848;BME280;57143;55.940;37.496;2022-11-11T03:50:19;99777.56;;;7.76;100.00
69848;BME280;57143;55.940;37.496;2022-11-11T03:52:46;99772.19;;;7.76;100.00
69848;BME280;57143;55.940;37.496;2022-11-11T03:55:14;99770.72;;;7.80;100.00
69848;BME280;57143;55.940;37.496;2022-11-11T03:57:42;99763.88;;;7.78;100.00
69848;BME280;57143;55.940;37.496;2022-11-11T04:00:11;99792.34;;;7.87;100.00
69848;BME280;57143;55.940;37.496;2022-11-11T04:02:40;99795.50;;;7.90;100.00
69848;BME280;57143;55.940;37.496;2022-11-11T04:05:24;99760.06;;;7.66;100.00
69848;BME280;57143;55.940;37.496;2022-11-11T04:08:11;99804.22;;;7.92;100.00
69848;BME280;57143;55.940;37.496;2022-11-11T04:10:56;99803.72;;;7.76;100.00
69848;BME280;57143;55.940;37.496;2022-11-11T04:13:23;99820.75;;;7.76;100.00
69848;BME280;57143;55.940;37.496;2022-11-11T04:16:08;99810.63;;;7.85;100.00
69848;BME280;57143;55.940;37.496;2022-11-11T04:18:37;99738.63;;;7.30;100.00
69848;BME280;57143;55.940;37.496;2022-11-11T04:21:22;99795.94;;;7.66;100.00
69848;BME280;57143;55.940;37.496;2022-11-11T04:24:07;99815.63;;;7.88;100.00
69848;BME280;57143;55.940;37.496;2022-11-11T04:26:48;99826.91;;;7.98;100.00
69848;BME280;57143;55.940;37.496;2022-11-11T04:29:15;99837.09;;;8.02;100.00
69848;BME280;57143;55.940;37.496;2022-11-11T04:31:53;99846.00;;;7.96;100.00
69848;BME280;57143;55.940;37.496;2022-11-11T04:34:39;99803.03;;;7.67;100.00
69848;BME280;57143;55.940;37.496;2022-11-11T04:37:06;99861.53;;;7.94;100.00
69848;BME280;57143;55.940;37.496;2022-11-11T04:39:34;99869.03;;;7.99;100.00
69848;BME280;57143;55.940;37.496;2022-11-11T04:42:18;99874.25;;;8.00;100.00
69848;BME280;57143;55.940;37.496;2022-11-11T04:44:45;99863.56;;;7.86;100.00
69848;BME280;57143;55.940;37.496;2022-11-11T04:47:31;99881.72;;;7.98;100.00
69848;BME280;57143;55.940;37.496;2022-11-11T04:50:00;99884.41;;;7.98;100.00
69848;BME280;57143;55.940;37.496;2022-11-11T04:52:27;99881.47;;;7.93;100.00
69848;BME280;57143;55.940;37.496;2022-11-11T04:54:55;99871.69;;;7.92;100.00
69848;BME280;57143;55.940;37.496;2022-11-11T04:57:41;99886.56;;;7.82;100.00
69848;BME280;57143;55.940;37.496;2022-11-11T05:00:11;99879.56;;;7.66;100.00
69848;BME280;57143;55.940;37.496;2022-11-11T05:02:38;99891.91;;;7.75;100.00
69848;BME280;57143;55.940;37.496;2022-11-11T05:05:25;99900.69;;;7.84;100.00
69848;BME280;57143;55.940;37.496;2022-11-11T05:07:52;99906.72;;;7.86;100.00
69848;BME280;57143;55.940;37.496;2022-11-11T05:10:37;99895.25;;;7.77;100.00
69848;BME280;57143;55.940;37.496;2022-11-11T05:13:05;99895.69;;;7.81;100.00
69848;BME280;57143;55.940;37.496;2022-11-11T05:15:49;99903.38;;;7.84;100.00
69848;BME280;57143;55.940;37.496;2022-11-11T05:18:33;99905.63;;;7.80;100.00
69848;BME280;57143;55.940;37.496;2022-11-11T05:21:21;99931.22;;;7.84;100.00
69848;BME280;57143;55.940;37.496;2022-11-11T05:23:50;99907.38;;;7.88;100.00
69848;BME280;57143;55.940;37.496;2022-11-11T05:26:46;99920.19;;;7.79;100.00
69848;BME280;57143;55.940;37.496;2022-11-11T05:29:22;99894.84;;;7.80;100.00
69848;BME280;57143;55.940;37.496;2022-11-11T05:31:49;99914.44;;;7.89;100.00
69848;BME280;57143;55.940;37.496;2022-11-11T05:34:16;99934.75;;;7.85;100.00
69848;BME280;57143;55.940;37.496;2022-11-11T05:36:45;99923.50;;;7.81;100.00
69848;BME280;57143;55.940;37.496;2022-11-11T05:39:12;99935.66;;;7.92;100.00
69848;BME280;57143;55.940;37.496;2022-11-11T05:41:39;99934.25;;;8.02;100.00
69848;BME280;57143;55.940;37.496;2022-11-11T05:44:06;99915.34;;;7.75;100.00
69848;BME280;57143;55.940;37.496;2022-11-11T05:46:33;99941.22;;;7.90;100.00
69848;BME280;57143;55.940;37.496;2022-11-11T05:49:00;99948.94;;;7.93;100.00
69848;BME280;57143;55.940;37.496;2022-11-11T05:51:44;99923.75;;;7.86;100.00
69848;BME280;57143;55.940;37.496;2022-11-11T05:54:12;99935.13;;;7.82;100.00
69848;BME280;57143;55.940;37.496;2022-11-11T05:56:39;99960.06;;;7.84;100.00
69848;BME280;57143;55.940;37.496;2022-11-11T05:59:06;99940.28;;;7.77;100.00
69848;BME280;57143;55.940;37.496;2022-11-11T06:01:34;99951.75;;;7.85;100.00
69848;BME280;57143;55.940;37.496;2022-11-11T06:04:02;99955.59;;;7.97;100.00
69848;BME280;57143;55.940;37.496;2022-11-11T06:06:29;99961.00;;;7.97;100.00
69848;BME280;57143;55.940;37.496;2022-11-11T06:08:58;99956.59;;;7.90;100.00
69848;BME280;57143;55.940;37.496;2022-11-11T06:11:25;99979.00;;;7.90;100.00
69848;BME280;57143;55.940;37.496;2022-11-11T06:13:52;99965.50;;;7.90;100.00
69848;BME280;57143;55.940;37.496;2022-11-11T06:16:20;99989.88;;;7.97;100.00
69848;BME280;57143;55.940;37.496;2022-11-11T06:18:48;99967.38;;;7.90;100.00
69848;BME280;57143;55.940;37.496;2022-11-11T06:21:15;99987.78;;;7.99;100.00
69848;BME280;57143;55.940;37.496;2022-11-11T06:23:43;99977.59;;;7.94;100.00
69848;BME280;57143;55.940;37.496;2022-11-11T06:26:13;99976.00;;;8.00;100.00
69848;BME280;57143;55.940;37.496;2022-11-11T06:28:42;100002.06;;;8.14;100.00
69848;BME280;57143;55.940;37.496;2022-11-11T06:31:11;99997.75;;;8.19;100.00
69848;BME280;57143;55.940;37.496;2022-11-11T06:33:38;99998.34;;;8.15;100.00
69848;BME280;57143;55.940;37.496;2022-11-11T06:36:06;100000.34;;;8.06;100.00
69848;BME280;57143;55.940;37.496;2022-11-11T06:38:34;100009.06;;;8.08;100.00
69848;BME280;57143;55.940;37.496;2022-11-11T06:41:01;100015.22;;;8.02;100.00
69848;BME280;57143;55.940;37.496;2022-11-11T06:43:30;100012.63;;;8.09;100.00
69848;BME280;57143;55.940;37.496;2022-11-11T06:45:57;100023.88;;;8.12;100.00
69848;BME280;57143;55.940;37.496;2022-11-11T06:48:25;100026.31;;;8.07;100.00
69848;BME280;57143;55.940;37.496;2022-11-11T06:50:53;100037.81;;;8.16;100.00
69848;BME280;57143;55.940;37.496;2022-11-11T06:53:21;100028.16;;;8.07;100.00
69848;BME280;57143;55.940;37.496;2022-11-11T06:55:51;100030.81;;;8.00;100.00
69848;BME280;57143;55.940;37.496;2022-11-11T06:58:19;100033.63;;;8.13;100.00
69848;BME280;57143;55.940;37.496;2022-11-11T07:00:48;100012.41;;;8.10;100.00
69848;BME280;57143;55.940;37.496;2022-11-11T07:03:17;100036.13;;;8.15;100.00
69848;BME280;57143;55.940;37.496;2022-11-11T07:05:44;100044.13;;;8.23;100.00
69848;BME280;57143;55.940;37.496;2022-11-11T07:08:13;100020.31;;;8.12;100.00
69848;BME280;57143;55.940;37.496;2022-11-11T07:10:44;100036.53;;;8.12;100.00
69848;BME280;57143;55.940;37.496;2022-11-11T07:13:13;100047.19;;;8.20;100.00
69848;BME280;57143;55.940;37.496;2022-11-11T07:15:41;100042.56;;;8.14;100.00
69848;BME280;57143;55.940;37.496;2022-11-11T07:18:11;100052.97;;;8.17;100.00
69848;BME280;57143;55.940;37.496;2022-11-11T07:20:38;100057.91;;;8.13;100.00
69848;BME280;57143;55.940;37.496;2022-11-11T07:23:06;100060.47;;;8.21;100.00
69848;BME280;57143;55.940;37.496;2022-11-11T07:25:33;100071.97;;;8.24;100.00
69848;BME280;57143;55.940;37.496;2022-11-11T07:28:01;100079.06;;;8.25;100.00
69848;BME280;57143;55.940;37.496;2022-11-11T07:30:28;100058.25;;;8.25;100.00
69848;BME280;57143;55.940;37.496;2022-11-11T07:32:55;100073.38;;;8.41;100.00
69848;BME280;57143;55.940;37.496;2022-11-11T07:35:23;100073.94;;;8.36;100.00
69848;BME280;57143;55.940;37.496;2022-11-11T07:37:50;100086.31;;;8.45;100.00
69848;BME280;57143;55.940;37.496;2022-11-11T07:40:18;100094.72;;;8.36;100.00
69848;BME280;57143;55.940;37.496;2022-11-11T07:42:45;100087.25;;;8.38;100.00
69848;BME280;57143;55.940;37.496;2022-11-11T07:45:13;100088.63;;;8.27;100.00
69848;BME280;57143;55.940;37.496;2022-11-11T07:47:42;100097.91;;;8.46;100.00
69848;BME280;57143;55.940;37.496;2022-11-11T07:50:09;100114.31;;;8.44;100.00
69848;BME280;57143;55.940;37.496;2022-11-11T07:52:38;100115.13;;;8.38;100.00
69848;BME280;57143;55.940;37.496;2022-11-11T07:55:06;100099.22;;;8.29;100.00
69848;BME280;57143;55.940;37.496;2022-11-11T07:57:34;100112.81;;;8.35;100.00
69848;BME280;57143;55.940;37.496;2022-11-11T08:00:01;100127.97;;;8.36;100.00
69848;BME280;57143;55.940;37.496;2022-11-11T08:02:30;100144.75;;;8.32;100.00
69848;BME280;57143;55.940;37.496;2022-11-11T08:04:57;100142.63;;;8.27;100.00
69848;BME280;57143;55.940;37.496;2022-11-11T08:07:24;100136.28;;;8.35;100.00
69848;BME280;57143;55.940;37.496;2022-11-11T08:09:53;100127.06;;;8.29;100.00
69848;BME280;57143;55.940;37.496;2022-11-11T08:12:20;100140.88;;;8.41;100.00
69848;BME280;57143;55.940;37.496;2022-11-11T08:15:05;100123.47;;;8.43;100.00
69848;BME280;57143;55.940;37.496;2022-11-11T08:17:36;100122.75;;;8.35;100.00
69848;BME280;57143;55.940;37.496;2022-11-11T08:20:04;100127.19;;;8.42;100.00
69848;BME280;57143;55.940;37.496;2022-11-11T08:22:35;100112.31;;;8.53;100.00
69848;BME280;57143;55.940;37.496;2022-11-11T08:25:05;100121.88;;;8.49;100.00
69848;BME280;57143;55.940;37.496;2022-11-11T08:27:32;100121.63;;;8.44;100.00
69848;BME280;57143;55.940;37.496;2022-11-11T08:29:59;100121.56;;;8.65;100.00
69848;BME280;57143;55.940;37.496;2022-11-11T08:32:26;100124.97;;;8.73;100.00
69848;BME280;57143;55.940;37.496;2022-11-11T08:34:54;100097.16;;;8.52;100.00
69848;BME280;57143;55.940;37.496;2022-11-11T08:37:21;100125.28;;;8.57;100.00
69848;BME280;57143;55.940;37.496;2022-11-11T08:39:48;100124.53;;;8.70;100.00
69848;BME280;57143;55.940;37.496;2022-11-11T08:42:18;100120.63;;;8.72;100.00
69848;BME280;57143;55.940;37.496;2022-11-11T08:44:45;100115.59;;;8.69;100.00
69848;BME280;57143;55.940;37.496;2022-11-11T08:47:12;100121.44;;;8.73;100.00
69848;BME280;57143;55.940;37.496;2022-11-11T08:49:40;100135.91;;;8.86;100.00
69848;BME280;57143;55.940;37.496;2022-11-11T08:52:07;100141.25;;;8.80;100.00
69848;BME280;57143;55.940;37.496;2022-11-11T08:54:34;100131.38;;;8.93;100.00
69848;BME280;57143;55.940;37.496;2022-11-11T08:57:01;100126.25;;;8.77;100.00
69848;BME280;57143;55.940;37.496;2022-11-11T08:59:29;100139.44;;;8.87;100.00
69848;BME280;57143;55.940;37.496;2022-11-11T09:01:56;100151.41;;;8.99;100.00
69848;BME280;57143;55.940;37.496;2022-11-11T09:04:23;100163.38;;;8.90;100.00
69848;BME280;57143;55.940;37.496;2022-11-11T09:06:50;100166.66;;;8.85;100.00
69848;BME280;57143;55.940;37.496;2022-11-11T09:09:17;100173.59;;;8.94;100.00
69848;BME280;57143;55.940;37.496;2022-11-11T09:11:44;100172.34;;;8.90;100.00
69848;BME280;57143;55.940;37.496;2022-11-11T09:14:11;100189.91;;;8.80;100.00
69848;BME280;57143;55.940;37.496;2022-11-11T09:16:40;100195.78;;;8.83;100.00
69848;BME280;57143;55.940;37.496;2022-11-11T09:19:07;100209.19;;;8.98;100.00
69848;BME280;57143;55.940;37.496;2022-11-11T09:21:34;100177.94;;;8.68;100.00
69848;BME280;57143;55.940;37.496;2022-11-11T09:24:01;100206.00;;;8.88;100.00
69848;BME280;57143;55.940;37.496;2022-11-11T09:26:28;100215.06;;;8.80;100.00
69848;BME280;57143;55.940;37.496;2022-11-11T09:28:55;100202.00;;;8.84;100.00
69848;BME280;57143;55.940;37.496;2022-11-11T09:31:22;100225.09;;;8.86;100.00
69848;BME280;57143;55.940;37.496;2022-11-11T09:33:51;100233.47;;;8.91;100.00
69848;BME280;57143;55.940;37.496;2022-11-11T09:36:19;100236.38;;;8.90;100.00
69848;BME280;57143;55.940;37.496;2022-11-11T09:38:46;100252.78;;;8.88;100.00
69848;BME280;57143;55.940;37.496;2022-11-11T09:41:18;100253.16;;;8.85;100.00
69848;BME280;57143;55.940;37.496;2022-11-11T09:43:53;100252.31;;;8.64;100.00
69848;BME280;57143;55.940;37.496;2022-11-11T09:46:32;100270.81;;;8.81;100.00
69848;BME280;57143;55.940;37.496;2022-11-11T09:49:15;100263.09;;;8.78;100.00
69848;BME280;57143;55.940;37.496;2022-11-11T09:51:51;100276.06;;;8.89;100.00
69848;BME280;57143;55.940;37.496;2022-11-11T09:54:29;100280.56;;;8.82;100.00
69848;BME280;57143;55.940;37.496;2022-11-11T09:57:07;100277.41;;;8.79;100.00
69848;BME280;57143;55.940;37.496;2022-11-11T09:59:42;100290.22;;;8.70;100.00
69848;BME280;57143;55.940;37.496;2022-11-11T10:02:18;100279.66;;;8.75;100.00
69848;BME280;57143;55.940;37.496;2022-11-11T10:04:54;100293.69;;;8.85;100.00
69848;BME280;57143;55.940;37.496;2022-11-11T10:07:30;100299.94;;;8.86;100.00
69848;BME280;57143;55.940;37.496;2022-11-11T10:10:05;100274.06;;;8.56;100.00
69848;BME280;57143;55.940;37.496;2022-11-11T10:12:38;100313.22;;;8.66;100.00
69848;BME280;57143;55.940;37.496;2022-11-11T10:15:11;100275.25;;;8.53;100.00
69848;BME280;57143;55.940;37.496;2022-11-11T10:17:52;100340.16;;;8.74;100.00
69848;BME280;57143;55.940;37.496;2022-11-11T10:20:28;100323.22;;;8.66;100.00
69848;BME280;57143;55.940;37.496;2022-11-11T10:23:02;100308.00;;;8.44;100.00
69848;BME280;57143;55.940;37.496;2022-11-11T10:25:30;100334.03;;;8.66;100.00
69848;BME280;57143;55.940;37.496;2022-11-11T10:28:00;100326.31;;;8.48;100.00
69848;BME280;57143;55.940;37.496;2022-11-11T10:30:30;100348.00;;;8.69;100.00
69848;BME280;57143;55.940;37.496;2022-11-11T10:32:59;100332.91;;;8.60;100.00
69848;BME280;57143;55.940;37.496;2022-11-11T10:35:30;100353.94;;;8.65;100.00
69848;BME280;57143;55.940;37.496;2022-11-11T10:38:02;100351.53;;;8.70;100.00
69848;BME280;57143;55.940;37.496;2022-11-11T10:40:40;100331.06;;;8.61;100.00
69848;BME280;57143;55.940;37.496;2022-11-11T10:43:16;100249.16;;;8.10;100.00
69848;BME280;57143;55.940;37.496;2022-11-11T10:45:50;100341.88;;;8.82;100.00
69848;BME280;57143;55.940;37.496;2022-11-11T10:48:22;100334.97;;;8.94;100.00
69848;BME280;57143;55.940;37.496;2022-11-11T10:50:53;100333.44;;;8.85;100.00
69848;BME280;57143;55.940;37.496;2022-11-11T10:53:29;100333.88;;;8.88;100.00
69848;BME280;57143;55.940;37.496;2022-11-11T10:56:03;100345.97;;;8.92;100.00
69848;BME280;57143;55.940;37.496;2022-11-11T10:58:39;100345.50;;;8.89;100.00
69848;BME280;57143;55.940;37.496;2022-11-11T11:01:11;100349.97;;;8.96;100.00
69848;BME280;57143;55.940;37.496;2022-11-11T11:03:42;100361.63;;;8.97;100.00
69848;BME280;57143;55.940;37.496;2022-11-11T11:06:16;100348.03;;;8.90;100.00
69848;BME280;57143;55.940;37.496;2022-11-11T11:08:47;100368.50;;;8.99;100.00
69848;BME280;57143;55.940;37.496;2022-11-11T11:11:21;100371.41;;;8.98;100.00
69848;BME280;57143;55.940;37.496;2022-11-11T11:13:51;100373.38;;;8.89;100.00
69848;BME280;57143;55.940;37.496;2022-11-11T11:16:22;100358.00;;;8.90;100.00
69848;BME280;57143;55.940;37.496;2022-11-11T11:19:12;100388.22;;;8.93;100.00
69848;BME280;57143;55.940;37.496;2022-11-11T11:21:52;100381.31;;;8.91;100.00
69848;BME280;57143;55.940;37.496;2022-11-11T11:24:22;100379.91;;;8.95;100.00
69848;BME280;57143;55.940;37.496;2022-11-11T11:26:51;100389.47;;;8.97;100.00
69848;BME280;57143;55.940;37.496;2022-11-11T11:29:27;100394.00;;;8.90;100.00
69848;BME280;57143;55.940;37.496;2022-11-11T11:31:55;100398.63;;;8.96;100.00
69848;BME280;57143;55.940;37.496;2022-11-11T11:34:42;100381.69;;;8.88;100.00
69848;BME280;57143;55.940;37.496;2022-11-11T11:37:11;100390.06;;;8.93;100.00
69848;BME280;57143;55.940;37.496;2022-11-11T11:39:39;100389.81;;;8.88;100.00
69848;BME280;57143;55.940;37.496;2022-11-11T11:42:06;100367.06;;;8.82;100.00
69848;BME280;57143;55.940;37.496;2022-11-11T11:44:34;100372.28;;;8.84;100.00
69848;BME280;57143;55.940;37.496;2022-11-11T11:47:20;100365.66;;;8.86;100.00
69848;BME280;57143;55.940;37.496;2022-11-11T11:50:07;100349.00;;;8.83;100.00
69848;BME280;57143;55.940;37.496;2022-11-11T11:52:48;100348.34;;;8.81;100.00
69848;BME280;57143;55.940;37.496;2022-11-11T11:55:23;100336.38;;;8.90;100.00
69848;BME280;57143;55.940;37.496;2022-11-11T11:58:15;100329.59;;;8.79;100.00
69848;BME280;57143;55.940;37.496;2022-11-11T12:00:52;100343.25;;;8.92;100.00
69848;BME280;57143;55.940;37.496;2022-11-11T12:03:46;100337.84;;;8.92;100.00
69848;BME280;57143;55.940;37.496;2022-11-11T12:06:23;100341.63;;;8.77;100.00
69848;BME280;57143;55.940;37.496;2022-11-11T12:09:00;100338.91;;;8.77;100.00
69848;BME280;57143;55.940;37.496;2022-11-11T12:11:36;100317.41;;;8.83;100.00
69848;BME280;57143;55.940;37.496;2022-11-11T12:14:32;100295.63;;;8.70;100.00
69848;BME280;57143;55.940;37.496;2022-11-11T12:17:12;100310.44;;;8.74;100.00
69848;BME280;57143;55.940;37.496;2022-11-11T12:19:51;100313.41;;;8.79;100.00
69848;BME280;57143;55.940;37.496;2022-11-11T12:22:40;100308.06;;;8.86;100.00
69848;BME280;57143;55.940;37.496;2022-11-11T12:25:19;100280.38;;;8.63;100.00
69848;BME280;57143;55.940;37.496;2022-11-11T12:27:57;100309.78;;;8.72;100.00
69848;BME280;57143;55.940;37.496;2022-11-11T12:30:29;100287.06;;;8.67;100.00
69848;BME280;57143;55.940;37.496;2022-11-11T12:33:10;100301.03;;;8.70;100.00
69848;BME280;57143;55.940;37.496;2022-11-11T12:35:48;100294.72;;;8.84;100.00
69848;BME280;57143;55.940;37.496;2022-11-11T12:38:39;100259.97;;;8.60;100.00
69848;BME280;57143;55.940;37.496;2022-11-11T12:41:22;100292.34;;;8.75;100.00
69848;BME280;57143;55.940;37.496;2022-11-11T12:43:57;100304.25;;;8.80;100.00
69848;BME280;57143;55.940;37.496;2022-11-11T12:46:36;100292.63;;;8.80;100.00
69848;BME280;57143;55.940;37.496;2022-11-11T12:49:20;100301.53;;;8.80;100.00
69848;BME280;57143;55.940;37.496;2022-11-11T12:51:54;100227.44;;;8.33;100.00
69848;BME280;57143;55.940;37.496;2022-11-11T12:54:33;100258.59;;;8.50;100.00
69848;BME280;57143;55.940;37.496;2022-11-11T12:57:14;100298.03;;;8.80;100.00
69848;BME280;57143;55.940;37.496;2022-11-11T13:00:07;100300.38;;;8.68;100.00
69848;BME280;57143;55.940;37.496;2022-11-11T13:02:47;100308.00;;;8.79;100.00
69848;BME280;57143;55.940;37.496;2022-11-11T13:05:24;100305.91;;;8.60;100.00
69848;BME280;57143;55.940;37.496;2022-11-11T13:08:22;100270.13;;;8.58;100.00
69848;BME280;57143;55.940;37.496;2022-11-11T13:11:02;100323.94;;;8.74;100.00